Containerships 6 — DABH — position and weather

sailwx.info

Track history (hours):
 
Tides and Currents Weather Stations Pressure Air Temp Water Temp Dewpoint Dewpoint Depression Visibility Wind Speed Wind Dir Waves Ship Positions

Containerships 6

Last reported at 2015-Mar-06 16:31 UTC. Time now 2015-Mar-06 17:34 UTC.
Position N 51°53' E 004°25'.

Length 155 m; beam 21.8 m; draft 8.9 m.

Type: Ship (hazmat cat A). MMSI: 211315096.

Date/timePositionNaut miles runAvg speedWind from/ knotsBaromVisibWave heightAir tempDewpointWater temp
2015-Mar-06 16:31N 51°53' E 004°25'0 0.0
2015-Mar-06 15:31N 51°53' E 004°25'0 0.0
2015-Mar-06 14:31N 51°53' E 004°25'0 0.0
2015-Mar-06 13:31N 51°53' E 004°25'0 0.0
2015-Mar-06 12:31N 51°53' E 004°25'0 0.0
2015-Mar-06 11:31N 51°53' E 004°25'0 0.0
2015-Mar-06 10:31N 51°53' E 004°25'0 0.0
2015-Mar-06 09:31N 51°53' E 004°25'0 0.0
2015-Mar-06 08:31N 51°53' E 004°25'0 0.0
2015-Mar-06 07:31N 51°53' E 004°25'0 0.0
2015-Mar-06 06:28N 51°53' E 004°25'0 0.0
2015-Mar-06 05:28N 51°53' E 004°25'0 0.0
2015-Mar-06 04:31N 51°53' E 004°25'0 0.0
2015-Mar-06 03:31N 51°53' E 004°25'0 0.0
2015-Mar-06 02:28N 51°53' E 004°25'0 0.0
2015-Mar-06 01:31N 51°53' E 004°25'0 0.0
2015-Mar-06 00:31N 51°53' E 004°25'0 0.1
2015-Mar-05 23:33N 51°53' E 004°25'7 6.9
2015-Mar-05 22:34N 51°55' E 004°14'1515.2
2015-Mar-05 21:34N 52°01' E 003°52'1817.4
2015-Mar-05 20:33N 52°09' E 003°26'6119.9
2015-Mar-05 17:29N 52°44' E 002°04'1819.5
2015-Mar-05 16:33N 52°54' E 001°39'1918.8
2015-Mar-05 15:34N 53°09' E 001°21'4018.8
2015-Mar-05 13:27N 53°43' E 000°46'1718.8
2015-Mar-05 12:33N 53°55' E 000°27'1918.6
2015-Mar-05 11:33N 54°09' E 000°06'1818.2
2015-Mar-05 10:34N 54°23' W 000°14'1312.6
2015-Mar-05 09:34N 54°33' W 000°28'1818.0
2015-Mar-05 08:32N 54°39' W 000°58'7 7.2
2015-Mar-05 07:33N 54°36' W 001°09'2 0.1
2015-Mar-04 17:20N 54°38' W 001°09'1215.2
2015-Mar-04 16:33N 54°45' W 000°52'1818.3
2015-Mar-04 15:33N 54°51' W 000°23'1817.7
2015-Mar-04 14:33N 54°58' E 000°05'38113.6
2015-Mar-03 10:31N 57°47' E 010°21'1515.3
2015-Mar-03 09:33N 57°47' E 010°49'1918.6
2015-Mar-03 08:33N 57°34' E 011°15'1818.5
2015-Mar-03 07:33N 57°19' E 011°33'1818.2
2015-Mar-03 06:33N 57°01' E 011°44'1818.1
2015-Mar-03 05:33N 56°44' E 011°53'12715.9
2015-Mar-02 21:33N 54°41' E 010°57'1717.1
2015-Mar-02 20:33N 54°33' E 011°23'1717.2
2015-Mar-02 19:33N 54°26' E 011°50'1414.5
2015-Mar-02 18:33N 54°31' E 012°13'1615.8
2015-Mar-02 17:33N 54°43' E 012°32'1716.7
2015-Mar-02 16:32N 54°51' E 012°57'1717.5
2015-Mar-02 15:33N 54°57' E 013°25'1817.8
2015-Mar-02 14:33N 55°03' E 013°54'1817.9
2015-Mar-02 13:33N 55°14' E 014°20'1918.5
2015-Mar-02 12:33N 55°28' E 014°42'1918.7
2015-Mar-02 11:34N 55°38' E 015°10'346 8.2
2015-Feb-28 17:18N 59°34' E 023°02'1317.6
2015-Feb-28 16:33N 59°38' E 023°27'1717.5
2015-Feb-28 15:33N 59°43' E 023°60'1817.9
2015-Feb-28 14:33N 59°49' E 024°33'2317.2
2015-Feb-28 13:12N 60°04' E 025°09'913.4
2015-Feb-28 12:33N 60°12' E 025°13'1 0.7
2015-Feb-28 11:25N 60°13' E 025°12'0 0.0
2015-Feb-28 10:31N 60°13' E 025°12'0 0.0
2015-Feb-28 09:31N 60°13' E 025°12'0 0.0
2015-Feb-28 08:28N 60°13' E 025°12'5 5.1
2015-Feb-28 07:33N 60°08' E 025°12'2015.1
2015-Feb-28 06:15N 59°58' E 025°46'1519.9
2015-Feb-28 05:28N 60°00' E 026°16'1819.8
2015-Feb-28 04:33N 59°60' E 026°52'2119.2
2015-Feb-28 03:29N 60°08' E 027°30'18 0.9
2015-Feb-27 07:04N 59°58' E 026°60'816.3
2015-Feb-27 06:34N 59°59' E 026°44'2018.3
2015-Feb-27 05:28N 59°55' E 026°05'3819.1
2015-Feb-27 03:31N 59°46' E 024°52'1819.1
2015-Feb-27 02:34N 59°42' E 024°17'1919.2
2015-Feb-27 01:33N 59°36' E 023°41'362 8.8
2015-Feb-25 08:33N 55°36' E 015°16'1919.5
2015-Feb-25 07:33N 55°27' E 014°45'1919.1
2015-Feb-25 06:33N 55°13' E 014°22'4318.7
2015-Feb-25 04:17N 55°13' E 013°07'1318.8
2015-Feb-25 03:33N 55°16' E 012°44'1313.1
2015-Feb-25 02:33N 55°29' E 012°41'10 9.9
2015-Feb-25 01:33N 55°39' E 012°41'1716.6
2015-Feb-25 00:33N 55°55' E 012°39'1515.4
2015-Feb-24 23:33N 56°09' E 012°25'7218.0
2015-Feb-24 19:33N 56°09' E 010°15'1 0.9
2015-Feb-24 18:31N 56°09' E 010°14'0 0.0
2015-Feb-24 17:28N 56°09' E 010°14'  
Track history (hours):
 
Tides and Currents Weather Stations Pressure Air Temp Water Temp Dewpoint Dewpoint Depression Visibility Wind Speed Wind Dir Waves Ship Positions

Containerships 6

Last reported at 2015-Mar-06 16:31 UTC. Time now 2015-Mar-06 17:34 UTC.
Position N 51°53' E 004°25'.

Length 155 m; beam 21.8 m; draft 8.9 m.

Type: Ship (hazmat cat A). MMSI: 211315096.

Date/timePositionNaut miles runAvg speedWind from/ knotsBaromVisibWave heightAir tempDewpointWater temp
2015-Mar-06 16:31N 51°53' E 004°25'0 0.0
2015-Mar-06 15:31N 51°53' E 004°25'0 0.0
2015-Mar-06 14:31N 51°53' E 004°25'0 0.0
2015-Mar-06 13:31N 51°53' E 004°25'0 0.0
2015-Mar-06 12:31N 51°53' E 004°25'0 0.0
2015-Mar-06 11:31N 51°53' E 004°25'0 0.0
2015-Mar-06 10:31N 51°53' E 004°25'0 0.0
2015-Mar-06 09:31N 51°53' E 004°25'0 0.0
2015-Mar-06 08:31N 51°53' E 004°25'0 0.0
2015-Mar-06 07:31N 51°53' E 004°25'0 0.0
2015-Mar-06 06:28N 51°53' E 004°25'0 0.0
2015-Mar-06 05:28N 51°53' E 004°25'0 0.0
2015-Mar-06 04:31N 51°53' E 004°25'0 0.0
2015-Mar-06 03:31N 51°53' E 004°25'0 0.0
2015-Mar-06 02:28N 51°53' E 004°25'0 0.0
2015-Mar-06 01:31N 51°53' E 004°25'0 0.0
2015-Mar-06 00:31N 51°53' E 004°25'0 0.1
2015-Mar-05 23:33N 51°53' E 004°25'7 6.9
2015-Mar-05 22:34N 51°55' E 004°14'1515.2
2015-Mar-05 21:34N 52°01' E 003°52'1817.4
2015-Mar-05 20:33N 52°09' E 003°26'6119.9
2015-Mar-05 17:29N 52°44' E 002°04'1819.5
2015-Mar-05 16:33N 52°54' E 001°39'1918.8
2015-Mar-05 15:34N 53°09' E 001°21'4018.8
2015-Mar-05 13:27N 53°43' E 000°46'1718.8
2015-Mar-05 12:33N 53°55' E 000°27'1918.6
2015-Mar-05 11:33N 54°09' E 000°06'1818.2
2015-Mar-05 10:34N 54°23' W 000°14'1312.6
2015-Mar-05 09:34N 54°33' W 000°28'1818.0
2015-Mar-05 08:32N 54°39' W 000°58'7 7.2
2015-Mar-05 07:33N 54°36' W 001°09'2 0.1
2015-Mar-04 17:20N 54°38' W 001°09'1215.2
2015-Mar-04 16:33N 54°45' W 000°52'1818.3
2015-Mar-04 15:33N 54°51' W 000°23'1817.7
2015-Mar-04 14:33N 54°58' E 000°05'38113.6
2015-Mar-03 10:31N 57°47' E 010°21'1515.3
2015-Mar-03 09:33N 57°47' E 010°49'1918.6
2015-Mar-03 08:33N 57°34' E 011°15'1818.5
2015-Mar-03 07:33N 57°19' E 011°33'1818.2
2015-Mar-03 06:33N 57°01' E 011°44'1818.1
2015-Mar-03 05:33N 56°44' E 011°53'12715.9
2015-Mar-02 21:33N 54°41' E 010°57'1717.1
2015-Mar-02 20:33N 54°33' E 011°23'1717.2
2015-Mar-02 19:33N 54°26' E 011°50'1414.5
2015-Mar-02 18:33N 54°31' E 012°13'1615.8
2015-Mar-02 17:33N 54°43' E 012°32'1716.7
2015-Mar-02 16:32N 54°51' E 012°57'1717.5
2015-Mar-02 15:33N 54°57' E 013°25'1817.8
2015-Mar-02 14:33N 55°03' E 013°54'1817.9
2015-Mar-02 13:33N 55°14' E 014°20'1918.5
2015-Mar-02 12:33N 55°28' E 014°42'1918.7
2015-Mar-02 11:34N 55°38' E 015°10'346 8.2
2015-Feb-28 17:18N 59°34' E 023°02'1317.6
2015-Feb-28 16:33N 59°38' E 023°27'1717.5
2015-Feb-28 15:33N 59°43' E 023°60'1817.9
2015-Feb-28 14:33N 59°49' E 024°33'2317.2
2015-Feb-28 13:12N 60°04' E 025°09'913.4
2015-Feb-28 12:33N 60°12' E 025°13'1 0.7
2015-Feb-28 11:25N 60°13' E 025°12'0 0.0
2015-Feb-28 10:31N 60°13' E 025°12'0 0.0
2015-Feb-28 09:31N 60°13' E 025°12'0 0.0
2015-Feb-28 08:28N 60°13' E 025°12'5 5.1
2015-Feb-28 07:33N 60°08' E 025°12'2015.1
2015-Feb-28 06:15N 59°58' E 025°46'1519.9
2015-Feb-28 05:28N 60°00' E 026°16'1819.8
2015-Feb-28 04:33N 59°60' E 026°52'2119.2
2015-Feb-28 03:29N 60°08' E 027°30'18 0.9
2015-Feb-27 07:04N 59°58' E 026°60'816.3
2015-Feb-27 06:34N 59°59' E 026°44'2018.3
2015-Feb-27 05:28N 59°55' E 026°05'3819.1
2015-Feb-27 03:31N 59°46' E 024°52'1819.1
2015-Feb-27 02:34N 59°42' E 024°17'1919.2
2015-Feb-27 01:33N 59°36' E 023°41'362 8.8
2015-Feb-25 08:33N 55°36' E 015°16'1919.5
2015-Feb-25 07:33N 55°27' E 014°45'1919.1
2015-Feb-25 06:33N 55°13' E 014°22'4318.7
2015-Feb-25 04:17N 55°13' E 013°07'1318.8
2015-Feb-25 03:33N 55°16' E 012°44'1313.1
2015-Feb-25 02:33N 55°29' E 012°41'10 9.9
2015-Feb-25 01:33N 55°39' E 012°41'1716.6
2015-Feb-25 00:33N 55°55' E 012°39'1515.4
2015-Feb-24 23:33N 56°09' E 012°25'7218.0
2015-Feb-24 19:33N 56°09' E 010°15'1 0.9
2015-Feb-24 18:31N 56°09' E 010°14'0 0.0
2015-Feb-24 17:28N 56°09' E 010°14'  

Dump ship's entire track history